Time;durP1;ratioP1;P1;durP2;ratioP2;P2;SDS_P1;SDS_P2;PMS_P1;PMS_P2;Temp;Humidity;BMP_temperature;BMP_pressure;BME280_temperature;BME280_humidity;BME280_pressure;Samples;Min_cycle;Max_cycle;Signal;HPM_P1;HPM_P2
2022/07/21 00:01:54;;;;;;;9.45;5.90;;;;;;;;;;4858493;29;20053;-72
2022/07/21 00:04:20;;;;;;;5.28;4.88;;;;;;;;;;4858716;29;20050;-73
2022/07/21 00:06:46;;;;;;;7.60;5.40;;;;;;;;;;4841605;29;20052;-71
2022/07/21 00:09:12;;;;;;;5.50;5.05;;;;;;;;;;4859350;29;20139;-71
2022/07/21 00:11:38;;;;;;;5.53;4.35;;;;;;;;;;4858370;29;20049;-72
2022/07/21 00:14:04;;;;;;;5.13;4.60;;;;;;;;;;4858515;29;20050;-72
2022/07/21 00:16:30;;;;;;;6.30;4.85;;;;;;;;;;4858571;29;20049;-72
2022/07/21 00:18:56;;;;;;;8.80;5.10;;;;;;;;;;4858062;29;20057;-72
2022/07/21 00:21:21;;;;;;;5.90;4.57;;;;;;;;;;4858449;29;20041;-71
2022/07/21 00:23:48;;;;;;;4.68;4.25;;;;;;;;;;4841324;29;20148;-73
2022/07/21 00:26:14;;;;;;;4.05;3.83;;;;;;;;;;4841961;29;20045;-72
2022/07/21 00:28:40;;;;;;;4.32;4.03;;;;;;;;;;4858093;29;20060;-73
2022/07/21 00:31:06;;;;;;;3.67;3.40;;;;;;;;;;4858371;29;20045;-72
2022/07/21 00:33:32;;;;;;;3.97;3.67;;;;;;;;;;4857005;29;20045;-72
2022/07/21 00:35:58;;;;;;;3.58;3.30;;;;;;;;;;4841426;29;20507;-72
2022/07/21 00:38:24;;;;;;;3.63;3.33;;;;;;;;;;4857890;29;20117;-72
2022/07/21 00:40:49;;;;;;;3.92;3.63;;;;;;;;;;4857861;29;20049;-72
2022/07/21 00:43:15;;;;;;;3.83;3.53;;;;;;;;;;4858076;29;20050;-72
2022/07/21 00:45:41;;;;;;;3.30;3.10;;;;;;;;;;4857762;29;20136;-72
2022/07/21 00:48:07;;;;;;;3.35;3.10;;;;;;;;;;4858099;29;20195;-73
2022/07/21 00:50:33;;;;;;;3.05;2.85;;;;;;;;;;4841511;29;20049;-72
2022/07/21 00:52:59;;;;;;;3.50;3.30;;;;;;;;;;4857757;29;20068;-72
2022/07/21 00:55:25;;;;;;;3.30;3.00;;;;;;;;;;4841389;29;20200;-72
2022/07/21 00:57:51;;;;;;;3.65;3.35;;;;;;;;;;4857283;29;20057;-72
2022/07/21 01:00:20;;;;;;;3.65;3.35;;;;;;;;;;4857404;29;20045;-72
2022/07/21 01:02:46;;;;;;;3.40;3.08;;;;;;;;;;4857493;29;20097;-72
2022/07/21 01:05:14;;;;;;;3.70;3.00;;;;;;;;;;4857933;29;20082;-72
2022/07/21 01:07:41;;;;;;;4.65;2.95;;;;;;;;;;4856127;29;20521;-70
2022/07/21 01:10:07;;;;;;;3.28;3.17;;;;;;;;;;4857669;29;20072;-72
2022/07/21 01:12:33;;;;;;;3.50;2.80;;;;;;;;;;4857500;29;20068;-73
2022/07/21 01:14:59;;;;;;;3.00;2.80;;;;;;;;;;4857347;29;20515;-71
2022/07/21 01:17:25;;;;;;;2.58;2.38;;;;;;;;;;4857366;29;20061;-73
2022/07/21 01:19:50;;;;;;;3.00;2.70;;;;;;;;;;4857298;29;20052;-72
2022/07/21 01:22:16;;;;;;;8.00;2.85;;;;;;;;;;4856271;29;20113;-71
2022/07/21 01:24:42;;;;;;;2.83;2.70;;;;;;;;;;4857179;29;20073;-73
2022/07/21 01:27:08;;;;;;;2.78;2.58;;;;;;;;;;4857344;29;20068;-72
2022/07/21 01:29:34;;;;;;;2.63;2.47;;;;;;;;;;4857557;29;20041;-72
2022/07/21 01:31:59;;;;;;;4.68;2.30;;;;;;;;;;4840624;29;20049;-73
2022/07/21 01:34:25;;;;;;;6.75;2.70;;;;;;;;;;4856474;29;20042;-72
2022/07/21 01:36:51;;;;;;;2.53;2.30;;;;;;;;;;4858181;29;20046;-72
2022/07/21 01:42:02;;;;;;;2.45;2.30;;;;;;;;;;4841751;29;20531;-71
2022/07/21 01:44:28;;;;;;;2.50;2.33;;;;;;;;;;4857363;29;20061;-72
2022/07/21 01:46:54;;;;;;;2.95;2.50;;;;;;;;;;4840678;29;20179;-72
2022/07/21 01:49:20;;;;;;;2.67;2.47;;;;;;;;;;4840755;29;20648;-73
2022/07/21 01:51:46;;;;;;;2.42;2.22;;;;;;;;;;4857018;29;20064;-72
2022/07/21 01:54:12;;;;;;;2.80;2.42;;;;;;;;;;4840801;29;20045;-73
2022/07/21 01:56:38;;;;;;;2.55;2.45;;;;;;;;;;4855593;29;20464;-74
2022/07/21 01:59:04;;;;;;;2.15;2.05;;;;;;;;;;4856082;29;20045;-73
2022/07/21 02:01:30;;;;;;;2.17;2.08;;;;;;;;;;4858829;29;20049;-72
2022/07/21 02:03:56;;;;;;;2.20;2.00;;;;;;;;;;4857517;29;20045;-73
2022/07/21 02:06:22;;;;;;;2.00;1.90;;;;;;;;;;4857235;29;20518;-72
2022/07/21 02:08:48;;;;;;;2.40;2.15;;;;;;;;;;4856973;29;20049;-73
2022/07/21 02:11:14;;;;;;;4.78;2.03;;;;;;;;;;4858848;29;20050;-72
2022/07/21 02:13:40;;;;;;;4.80;2.08;;;;;;;;;;4859667;29;20059;-71
2022/07/21 02:16:06;;;;;;;2.28;2.15;;;;;;;;;;4861191;29;20049;-73
2022/07/21 02:18:32;;;;;;;2.10;2.00;;;;;;;;;;4860681;29;20053;-73
2022/07/21 02:20:58;;;;;;;2.65;1.90;;;;;;;;;;4860606;29;20102;-72
2022/07/21 02:23:24;;;;;;;2.28;1.85;;;;;;;;;;4843815;29;20041;-73
2022/07/21 02:25:51;;;;;;;8.02;2.20;;;;;;;;;;4860331;29;20423;-72
2022/07/21 02:28:18;;;;;;;2.80;1.90;;;;;;;;;;4860573;29;20034;-73
2022/07/21 02:30:44;;;;;;;2.17;2.00;;;;;;;;;;4860164;29;20426;-74
2022/07/21 02:33:10;;;;;;;2.53;2.33;;;;;;;;;;4859136;29;20054;-73
2022/07/21 02:35:35;;;;;;;2.65;1.88;;;;;;;;;;4860392;29;20057;-74
2022/07/21 02:38:01;;;;;;;3.40;2.20;;;;;;;;;;4859826;29;20057;-73
2022/07/21 02:40:27;;;;;;;2.50;2.30;;;;;;;;;;4860239;29;20427;-73
2022/07/21 02:42:53;;;;;;;2.15;1.90;;;;;;;;;;4859909;29;20057;-73
2022/07/21 02:45:19;;;;;;;2.00;1.90;;;;;;;;;;4843755;29;20129;-74
2022/07/21 02:47:54;;;;;;;1.65;1.65;;;;;;;;;;4859932;29;20060;-74
2022/07/21 02:50:20;;;;;;;2.20;1.90;;;;;;;;;;4843619;29;20052;-73
2022/07/21 02:52:46;;;;;;;1.73;1.63;;;;;;;;;;4859741;29;20045;-73
2022/07/21 02:55:12;;;;;;;1.80;1.70;;;;;;;;;;4843391;29;20044;-73
2022/07/21 02:57:38;;;;;;;2.05;1.90;;;;;;;;;;4842902;29;20160;-73
2022/07/21 03:00:04;;;;;;;2.63;1.85;;;;;;;;;;4859878;29;20578;-71
2022/07/21 03:02:30;;;;;;;2.30;1.90;;;;;;;;;;4859787;29;20045;-72
2022/07/21 03:04:56;;;;;;;1.90;1.85;;;;;;;;;;4859723;29;20167;-71
2022/07/21 03:07:22;;;;;;;2.30;2.20;;;;;;;;;;4859680;29;20396;-73
2022/07/21 03:09:47;;;;;;;2.70;2.50;;;;;;;;;;4859373;29;20053;-72
2022/07/21 23:03:27;;;;;;;2.40;2.22;;;;;;;;;;4876162;29;20088;-77
2022/07/21 23:05:53;;;;;;;4.55;2.50;;;;;;;;;;4889873;29;20065;-77
2022/07/21 23:08:19;;;;;;;2.60;2.40;;;;;;;;;;4892289;29;20037;-76
2022/07/21 23:10:44;;;;;;;6.20;2.33;;;;;;;;;;4881693;29;20056;-76
2022/07/21 23:13:10;;;;;;;2.75;2.55;;;;;;;;;;4878833;29;20063;-77
2022/07/21 23:15:37;;;;;;;3.20;2.42;;;;;;;;;;4861999;29;20136;-76
2022/07/21 23:18:02;;;;;;;2.67;2.33;;;;;;;;;;4877990;29;20079;-77
2022/07/21 23:20:28;;;;;;;2.35;2.20;;;;;;;;;;4878546;29;20049;-74
2022/07/21 23:22:54;;;;;;;2.95;2.50;;;;;;;;;;4877885;29;20045;-76
2022/07/21 23:25:20;;;;;;;8.77;2.60;;;;;;;;;;4878504;29;20055;-78
2022/07/21 23:27:47;;;;;;;4.13;2.60;;;;;;;;;;4861484;29;20079;-75
2022/07/21 23:30:13;;;;;;;5.85;2.67;;;;;;;;;;4861296;29;21012;-75
2022/07/21 23:32:39;;;;;;;7.53;2.60;;;;;;;;;;4861595;29;20049;-76
2022/07/21 23:35:05;;;;;;;2.50;2.30;;;;;;;;;;4878021;29;20055;-77
2022/07/21 23:37:31;;;;;;;3.55;2.47;;;;;;;;;;4878011;29;20147;-77
2022/07/21 23:39:57;;;;;;;5.53;2.90;;;;;;;;;;4877253;29;20546;-77
2022/07/21 23:42:23;;;;;;;3.30;3.00;;;;;;;;;;4878063;29;20106;-76
2022/07/21 23:44:49;;;;;;;5.45;2.67;;;;;;;;;;4878059;29;20045;-76
2022/07/21 23:47:15;;;;;;;2.67;2.53;;;;;;;;;;4860858;29;20077;-76
2022/07/21 23:49:41;;;;;;;4.22;2.72;;;;;;;;;;4861346;29;20529;-76
2022/07/21 23:52:07;;;;;;;3.85;2.67;;;;;;;;;;4877324;29;20074;-75
2022/07/21 23:54:33;;;;;;;3.30;2.85;;;;;;;;;;4845852;29;20079;-76
2022/07/21 23:56:59;;;;;;;2.30;2.20;;;;;;;;;;4877403;29;20041;-75
2022/07/21 23:59:25;;;;;;;3.38;2.72;;;;;;;;;;4877710;29;20272;-77
